createdAt,value
2022-10-10T00:01:37.408Z,10.07
2022-10-10T00:04:07.054Z,9.48
2022-10-10T00:06:36.016Z,9.82
2022-10-10T00:09:05.821Z,9.60
2022-10-10T00:11:34.490Z,9.40
2022-10-10T00:14:04.688Z,9.68
2022-10-10T00:16:33.456Z,9.27
2022-10-10T00:19:01.985Z,9.52
2022-10-10T00:21:30.959Z,10.25
2022-10-10T00:24:00.695Z,10.05
2022-10-10T00:26:29.764Z,10.20
2022-10-10T00:28:58.472Z,9.55
2022-10-10T00:31:28.488Z,10.13
2022-10-10T00:33:56.918Z,9.68
2022-10-10T00:36:25.243Z,9.55
2022-10-10T00:38:53.726Z,9.70
2022-10-10T00:41:22.364Z,9.55
2022-10-10T00:44:06.370Z,9.82
2022-10-10T00:46:36.608Z,10.02
2022-10-10T00:49:08.386Z,9.98
2022-10-10T00:51:37.105Z,10.13
2022-10-10T00:54:10.529Z,10.15
2022-10-10T00:56:44.723Z,9.88
2022-10-10T00:59:13.531Z,9.98
2022-10-10T01:01:43.938Z,10.75
2022-10-10T01:04:35.409Z,10.20
2022-10-10T01:07:08.708Z,10.60
2022-10-10T01:09:39.607Z,10.23
2022-10-10T01:12:19.878Z,9.98
2022-10-10T01:14:59.780Z,10.25
2022-10-10T01:17:35.774Z,10.33
2022-10-10T01:20:47.704Z,9.82
2022-10-10T01:23:47.869Z,10.57
2022-10-10T01:27:09.943Z,9.90
2022-10-10T01:29:44.819Z,10.40
2022-10-10T01:32:18.111Z,9.88
2022-10-10T01:34:57.149Z,10.07
2022-10-10T01:37:38.832Z,10.60
2022-10-10T01:40:15.641Z,11.13
2022-10-10T01:42:50.851Z,9.90
2022-10-10T01:45:21.270Z,9.98
2022-10-10T01:47:51.126Z,10.00
2022-10-10T01:50:23.611Z,10.13
2022-10-10T01:53:05.108Z,9.48
2022-10-10T01:55:52.429Z,10.05
2022-10-10T01:58:46.750Z,10.15
2022-10-10T02:01:23.525Z,10.43
2022-10-10T02:04:00.603Z,10.40
2022-10-10T02:06:34.738Z,10.27
2022-10-10T02:09:08.715Z,10.73
2022-10-10T02:11:40.387Z,10.00
2022-10-10T02:14:15.940Z,9.77
2022-10-10T02:16:48.839Z,9.88
2022-10-10T02:19:21.076Z,10.27
2022-10-10T02:21:52.503Z,9.77
2022-10-10T02:24:22.952Z,10.35
2022-10-10T02:27:02.621Z,10.23
2022-10-10T02:29:36.216Z,9.95
2022-10-10T02:32:11.272Z,10.10
2022-10-10T02:34:44.584Z,10.25
2022-10-10T02:37:16.429Z,9.40
2022-10-10T02:39:50.410Z,10.43
2022-10-10T02:42:22.818Z,9.77
2022-10-10T02:44:51.687Z,10.45
2022-10-10T02:47:21.262Z,9.40
2022-10-10T02:49:49.778Z,10.27
2022-10-10T02:52:18.355Z,10.00
2022-10-10T02:54:46.637Z,9.70
2022-10-10T02:57:14.924Z,9.48
2022-10-10T02:59:43.453Z,10.77
2022-10-10T03:02:11.678Z,10.20
2022-10-10T03:04:42.109Z,10.00
2022-10-10T03:07:10.505Z,9.23
2022-10-10T03:09:38.742Z,10.00
2022-10-10T03:12:07.008Z,9.18
2022-10-10T03:14:35.501Z,10.15
2022-10-10T03:17:03.711Z,10.07
2022-10-10T03:19:31.936Z,9.45
2022-10-10T03:22:01.587Z,9.40
2022-10-10T03:24:30.123Z,9.43
2022-10-10T03:26:58.355Z,9.73
2022-10-10T03:29:26.641Z,8.93
2022-10-10T03:31:54.799Z,9.60
2022-10-10T03:34:23.075Z,9.45
2022-10-10T03:36:51.291Z,9.43
2022-10-10T03:39:20.967Z,10.02
2022-10-10T03:41:50.302Z,9.68
2022-10-10T03:44:19.106Z,9.52
2022-10-10T03:46:47.345Z,10.35
2022-10-10T03:49:15.677Z,10.40
2022-10-10T03:51:43.908Z,9.82
2022-10-10T03:54:12.105Z,10.00
2022-10-10T03:56:41.715Z,10.20
2022-10-10T03:59:10.053Z,10.10
2022-10-10T04:01:38.651Z,9.93
2022-10-10T04:04:06.904Z,10.65
2022-10-10T04:06:35.104Z,9.90
2022-10-10T04:09:04.357Z,10.38
2022-10-10T04:11:32.580Z,10.50
2022-10-10T04:14:02.114Z,11.05
2022-10-10T04:16:30.369Z,9.65
2022-10-10T04:18:58.576Z,11.05
2022-10-10T04:21:26.837Z,10.38
2022-10-10T04:23:55.003Z,10.82
2022-10-10T04:26:23.248Z,9.55
2022-10-10T04:28:51.599Z,11.30
2022-10-10T04:31:21.441Z,10.75
2022-10-10T04:33:49.746Z,11.45
2022-10-10T04:36:17.945Z,12.43
2022-10-10T04:38:46.323Z,11.02
2022-10-10T04:41:14.563Z,11.00
2022-10-10T04:43:42.793Z,11.98
2022-10-10T04:46:11.030Z,11.15
2022-10-10T04:48:40.663Z,11.15
2022-10-10T04:51:08.902Z,11.90
2022-10-10T04:53:37.328Z,11.20
2022-10-10T04:56:05.826Z,11.70
2022-10-10T04:58:34.181Z,11.52
2022-10-10T05:01:02.462Z,11.63
2022-10-10T05:03:31.161Z,11.60
2022-10-10T05:06:00.714Z,11.55
2022-10-10T05:08:28.945Z,11.30
2022-10-10T05:10:57.218Z,11.27
2022-10-10T05:13:25.516Z,11.55
2022-10-10T05:15:54.091Z,11.07
2022-10-10T05:18:23.030Z,12.00
2022-10-10T05:20:51.227Z,11.15
2022-10-10T05:23:20.783Z,11.13
2022-10-10T05:25:51.291Z,10.50
2022-10-10T05:28:19.723Z,11.45
2022-10-10T05:30:47.967Z,12.23
2022-10-10T05:33:16.218Z,11.00
2022-10-10T05:35:44.395Z,11.75
2022-10-10T05:38:12.697Z,11.15
2022-10-10T05:40:43.110Z,11.02
2022-10-10T05:43:11.791Z,10.48
2022-10-10T05:45:39.999Z,11.00
2022-10-10T05:48:08.196Z,10.85
2022-10-10T05:50:47.264Z,11.57
2022-10-10T05:53:15.525Z,11.77
2022-10-10T05:55:45.451Z,11.05
2022-10-10T05:58:14.412Z,11.48
2022-10-10T06:00:44.333Z,11.48
2022-10-10T06:03:14.788Z,11.00
2022-10-10T06:05:44.245Z,11.30
2022-10-10T06:08:12.837Z,10.68
2022-10-10T06:10:45.828Z,10.10
2022-10-10T06:13:21.634Z,10.55
2022-10-10T06:15:53.301Z,11.75
2022-10-10T06:18:21.575Z,11.75
2022-10-10T06:20:49.778Z,11.35
2022-10-10T06:23:18.237Z,11.73
2022-10-10T06:25:48.278Z,11.95
2022-10-10T06:28:16.545Z,11.77
2022-10-10T06:30:48.421Z,11.63
2022-10-10T06:33:18.990Z,12.32
2022-10-10T06:35:49.493Z,11.10
2022-10-10T06:38:18.250Z,11.30
2022-10-10T06:40:48.289Z,10.65
2022-10-10T06:43:18.033Z,10.32
2022-10-10T06:45:48.411Z,10.63
2022-10-10T06:48:16.952Z,10.57
2022-10-10T06:50:45.155Z,10.80
2022-10-10T06:53:13.408Z,11.23
2022-10-10T06:55:48.485Z,10.80
2022-10-10T06:58:16.702Z,11.60
2022-10-10T07:00:51.440Z,10.77
2022-10-10T07:03:20.574Z,11.77
2022-10-10T07:05:52.141Z,11.38
2022-10-10T07:08:20.719Z,11.45
2022-10-10T07:10:50.593Z,11.35
2022-10-10T07:13:19.478Z,11.40
2022-10-10T07:15:48.169Z,11.95
2022-10-10T07:18:18.290Z,10.90
2022-10-10T07:20:46.858Z,11.18
2022-10-10T07:23:15.759Z,11.23
2022-10-10T07:25:44.540Z,12.20
2022-10-10T07:28:14.208Z,11.43
2022-10-10T07:30:43.904Z,11.38
2022-10-10T07:33:12.735Z,10.65
2022-10-10T07:35:40.995Z,11.52
2022-10-10T07:38:09.332Z,10.27
2022-10-10T07:40:40.644Z,10.02
2022-10-10T07:43:08.885Z,10.55
2022-10-10T07:45:38.612Z,10.38
2022-10-10T07:48:06.944Z,10.27
2022-10-10T07:50:35.305Z,10.88
2022-10-10T07:53:03.585Z,10.38
2022-10-10T07:55:31.779Z,10.15
2022-10-10T07:58:02.939Z,10.20
2022-10-10T08:00:31.393Z,10.27
2022-10-10T08:03:00.967Z,10.93
2022-10-10T08:05:29.274Z,10.40
2022-10-10T08:07:57.544Z,10.88
2022-10-10T08:10:25.863Z,10.05
2022-10-10T08:12:54.075Z,11.40
2022-10-10T08:15:22.341Z,10.48
2022-10-10T08:17:50.791Z,9.07
2022-10-10T08:20:20.453Z,9.18
2022-10-10T08:22:48.830Z,9.60
2022-10-10T08:25:17.474Z,10.18
2022-10-10T08:27:45.735Z,9.10
2022-10-10T08:30:14.808Z,8.60
2022-10-10T08:32:43.187Z,8.65
2022-10-10T08:35:11.425Z,9.00
2022-10-10T08:37:41.000Z,9.02
2022-10-10T08:40:12.174Z,8.68
2022-10-10T08:42:51.733Z,8.90
2022-10-10T08:45:25.028Z,8.60
2022-10-10T08:48:00.099Z,9.07
2022-10-10T08:50:32.763Z,9.10
2022-10-10T08:53:07.579Z,8.93
2022-10-10T08:55:39.422Z,8.95
2022-10-10T08:58:19.878Z,9.52
2022-10-10T09:00:51.729Z,10.93
2022-10-10T09:03:27.317Z,10.32
2022-10-10T09:06:20.724Z,10.20
2022-10-10T09:09:01.836Z,10.65
2022-10-10T09:11:48.613Z,9.80
2022-10-10T09:14:30.705Z,9.73
2022-10-10T09:17:04.711Z,10.05
2022-10-10T09:19:51.556Z,9.63
2022-10-10T09:22:27.750Z,9.27
2022-10-10T09:25:04.576Z,10.10
2022-10-10T09:27:38.558Z,9.10
2022-10-10T09:30:15.235Z,8.98
2022-10-10T09:32:49.626Z,9.30
2022-10-10T09:35:22.817Z,9.38
2022-10-10T09:37:54.887Z,9.02
2022-10-10T09:40:30.033Z,9.32
2022-10-10T09:42:58.582Z,9.43
2022-10-10T09:45:34.086Z,9.70
2022-10-10T09:48:02.328Z,10.93
2022-10-10T09:50:30.532Z,10.20
2022-10-10T09:52:59.510Z,9.40
2022-10-10T09:55:34.570Z,9.80
2022-10-10T09:58:13.392Z,10.23
2022-10-10T10:00:41.767Z,9.05
2022-10-10T10:03:16.481Z,9.65
2022-10-10T10:05:54.946Z,8.75
2022-10-10T10:08:29.927Z,8.80
2022-10-10T10:11:00.827Z,8.40
2022-10-10T10:13:33.124Z,8.68
2022-10-10T10:16:07.019Z,9.20
2022-10-10T10:18:42.479Z,8.98
2022-10-10T10:21:19.605Z,9.43
2022-10-10T10:24:00.675Z,9.40
2022-10-10T10:26:44.908Z,9.98
2022-10-10T10:29:30.373Z,9.70
2022-10-10T10:32:07.475Z,9.93
2022-10-10T10:35:11.059Z,9.32
2022-10-10T10:37:58.311Z,9.77
2022-10-10T10:40:35.484Z,9.07
2022-10-10T10:43:31.693Z,9.05
2022-10-10T10:46:11.003Z,8.77
2022-10-10T10:48:46.019Z,9.10
2022-10-10T10:51:41.103Z,8.40
2022-10-10T10:54:30.346Z,7.97
2022-10-10T10:57:11.200Z,8.52
2022-10-10T11:00:21.726Z,8.63
2022-10-10T11:03:27.963Z,8.60
2022-10-10T11:06:07.557Z,7.97
2022-10-10T11:08:53.327Z,8.30
2022-10-10T11:11:35.988Z,8.40
2022-10-10T11:14:16.748Z,7.85
2022-10-10T11:19:27.654Z,5.13
2022-10-10T11:22:03.169Z,5.32
2022-10-10T11:24:42.067Z,4.78
2022-10-10T11:27:17.124Z,4.97
2022-10-10T11:30:00.193Z,4.97
2022-10-10T11:32:37.780Z,4.78
2022-10-10T11:35:28.711Z,4.55
2022-10-10T11:38:06.186Z,4.75
2022-10-10T11:40:44.391Z,4.55
2022-10-10T11:43:22.392Z,4.07
2022-10-10T11:46:02.680Z,4.43
2022-10-10T11:51:21.081Z,3.85
2022-10-10T11:53:51.864Z,4.15
2022-10-10T11:56:27.905Z,3.97
2022-10-10T11:59:03.344Z,3.85
2022-10-10T12:01:36.816Z,4.20
2022-10-10T12:04:09.558Z,3.40
2022-10-10T12:06:43.339Z,3.00
2022-10-10T12:09:17.791Z,3.40
2022-10-10T12:11:51.554Z,3.17
2022-10-10T12:14:22.259Z,3.13
2022-10-10T12:19:22.823Z,3.72
2022-10-10T12:21:59.850Z,2.80
2022-10-10T12:24:31.017Z,3.30
2022-10-10T12:28:06.753Z,2.90
2022-10-10T12:30:35.146Z,3.15
2022-10-10T12:33:03.377Z,2.70
2022-10-10T12:35:40.124Z,2.65
2022-10-10T12:38:19.199Z,2.80
2022-10-10T12:41:14.804Z,2.80
2022-10-10T12:43:52.248Z,3.30
2022-10-10T12:46:32.116Z,3.33
2022-10-10T12:49:19.121Z,3.23
2022-10-10T12:52:02.030Z,3.60
2022-10-10T12:54:35.419Z,3.53
2022-10-10T12:57:17.764Z,3.53
2022-10-10T12:59:46.468Z,3.60
2022-10-10T13:02:22.590Z,3.60
2022-10-10T13:04:54.156Z,3.72
2022-10-10T13:07:24.758Z,3.45
2022-10-10T13:09:55.620Z,3.40
2022-10-10T13:12:28.155Z,3.20
2022-10-10T13:14:57.838Z,3.97
2022-10-10T13:17:29.866Z,3.55
2022-10-10T13:20:00.891Z,3.72
2022-10-10T13:22:33.715Z,4.35
2022-10-10T13:25:05.262Z,4.40
2022-10-10T13:27:36.013Z,4.88
2022-10-10T13:32:37.369Z,5.03
2022-10-10T13:37:37.291Z,4.93
2022-10-10T13:40:06.806Z,5.30
2022-10-10T13:42:38.672Z,5.55
2022-10-10T13:45:33.815Z,4.85
2022-10-10T13:48:21.325Z,5.53
2022-10-10T13:51:03.501Z,5.55
2022-10-10T13:53:47.327Z,6.35
2022-10-10T13:56:21.195Z,5.03
2022-10-10T13:58:52.575Z,5.55
2022-10-10T14:01:29.960Z,5.93
2022-10-10T14:04:16.533Z,5.45
2022-10-10T14:07:00.370Z,6.07
2022-10-10T14:09:34.208Z,4.75
2022-10-10T14:12:05.189Z,5.57
2022-10-10T14:14:44.648Z,4.93
2022-10-10T14:17:13.808Z,4.68
2022-10-10T14:19:43.170Z,6.38
2022-10-10T14:22:11.478Z,5.57
2022-10-10T14:24:41.099Z,5.28
2022-10-10T14:27:17.040Z,5.90
2022-10-10T14:29:45.570Z,5.43
2022-10-10T14:32:15.751Z,5.30
2022-10-10T14:34:44.404Z,5.50
2022-10-10T14:37:19.600Z,5.60
2022-10-10T14:39:49.610Z,4.60
2022-10-10T14:42:19.626Z,7.85
2022-10-10T14:44:48.041Z,4.40
2022-10-10T14:47:18.816Z,4.70
2022-10-10T14:49:47.150Z,5.43
2022-10-10T14:52:16.180Z,5.35
2022-10-10T14:54:44.874Z,4.97
2022-10-10T14:57:15.632Z,5.22
2022-10-10T14:59:47.407Z,4.80
2022-10-10T15:02:20.203Z,4.93
2022-10-10T15:04:48.463Z,5.05
2022-10-10T15:07:17.890Z,4.75
2022-10-10T15:12:39.522Z,4.47
2022-10-10T15:15:10.112Z,5.20
2022-10-10T15:17:38.398Z,5.03
2022-10-10T15:20:11.202Z,4.35
2022-10-10T15:22:40.114Z,5.03
2022-10-10T15:25:10.319Z,5.05
2022-10-10T15:27:40.265Z,5.60
2022-10-10T15:30:11.263Z,4.30
2022-10-10T15:32:40.672Z,4.90
2022-10-10T15:35:13.502Z,4.78
2022-10-10T15:37:41.836Z,4.55
2022-10-10T15:40:11.673Z,4.35
2022-10-10T15:42:41.350Z,5.10
2022-10-10T15:45:11.163Z,4.50
2022-10-10T15:47:45.495Z,4.17
2022-10-10T15:50:15.279Z,4.38
2022-10-10T15:52:43.520Z,4.30
2022-10-10T15:55:12.019Z,4.70
2022-10-10T15:57:43.193Z,4.68
2022-10-10T16:00:13.004Z,4.35
2022-10-10T16:02:41.270Z,5.25
2022-10-10T16:05:10.702Z,6.07
2022-10-10T16:07:47.566Z,4.07
2022-10-10T16:10:17.085Z,5.20
2022-10-10T16:12:46.672Z,4.32
2022-10-10T16:15:15.079Z,4.53
2022-10-10T16:17:43.391Z,5.20
2022-10-10T16:20:13.024Z,4.75
2022-10-10T16:22:41.253Z,5.63
2022-10-10T16:25:21.850Z,4.40
2022-10-10T16:27:52.643Z,4.28
2022-10-10T16:30:21.456Z,5.07
2022-10-10T16:32:50.258Z,4.95
2022-10-10T16:35:18.684Z,4.95
2022-10-10T16:37:47.061Z,5.32
2022-10-10T16:40:15.474Z,5.10
2022-10-10T16:42:43.690Z,5.20
2022-10-10T16:45:13.727Z,4.30
2022-10-10T16:47:42.012Z,6.03
2022-10-10T16:50:11.295Z,4.68
2022-10-10T16:52:40.376Z,4.97
2022-10-10T16:55:11.209Z,5.28
2022-10-10T16:57:40.452Z,4.95
2022-10-10T17:00:13.343Z,5.75
2022-10-10T17:02:42.355Z,4.93
2022-10-10T17:05:11.003Z,4.68
2022-10-10T17:07:39.230Z,4.68
2022-10-10T17:10:08.877Z,5.07
2022-10-10T17:12:37.153Z,5.03
2022-10-10T17:15:06.754Z,4.63
2022-10-10T17:17:37.993Z,5.10
2022-10-10T17:20:08.072Z,5.10
2022-10-10T17:22:37.351Z,5.22
2022-10-10T17:25:06.955Z,5.20
2022-10-10T17:27:35.929Z,5.03
2022-10-10T17:30:05.478Z,5.53
2022-10-10T17:32:33.699Z,5.38
2022-10-10T17:35:03.455Z,4.85
2022-10-10T17:37:32.394Z,5.90
2022-10-10T17:40:00.662Z,5.15
2022-10-10T17:42:28.970Z,5.43
2022-10-10T17:44:59.525Z,5.57
2022-10-10T17:47:28.561Z,5.65
2022-10-10T17:49:56.797Z,5.60
2022-10-10T17:52:26.716Z,4.97
2022-10-10T17:54:54.972Z,5.03
2022-10-10T17:57:23.178Z,5.20
2022-10-10T17:59:51.622Z,5.10
2022-10-10T18:02:20.521Z,5.97
2022-10-10T18:04:48.811Z,5.22
2022-10-10T18:07:19.190Z,5.85
2022-10-10T18:09:52.130Z,6.18
2022-10-10T18:12:20.701Z,5.60
2022-10-10T18:14:48.966Z,5.30
2022-10-10T18:17:17.225Z,5.57
2022-10-10T18:19:45.650Z,4.93
2022-10-10T18:22:13.985Z,5.13
2022-10-10T18:24:42.199Z,6.10
2022-10-10T18:27:11.839Z,4.65
2022-10-10T18:29:40.056Z,4.70
2022-10-10T18:32:09.000Z,4.90
2022-10-10T18:34:37.614Z,5.05
2022-10-10T18:37:06.554Z,4.57
2022-10-10T18:39:35.982Z,5.00
2022-10-10T18:42:04.625Z,4.38
2022-10-10T18:44:34.415Z,5.18
2022-10-10T18:47:02.702Z,5.30
2022-10-10T18:49:31.125Z,5.00
2022-10-10T18:51:59.365Z,5.18
2022-10-10T18:54:30.121Z,5.32
2022-10-10T18:59:26.534Z,5.35
2022-10-10T19:01:56.377Z,5.40
2022-10-10T19:04:25.201Z,5.53
2022-10-10T19:06:57.363Z,4.68
2022-10-10T19:09:26.786Z,4.97
2022-10-10T19:11:55.603Z,5.38
2022-10-10T19:14:24.038Z,4.93
2022-10-10T19:16:52.270Z,4.22
2022-10-10T19:19:22.075Z,4.60
2022-10-10T19:21:52.439Z,5.60
2022-10-10T19:24:22.361Z,4.68
2022-10-10T19:26:54.706Z,4.65
2022-10-10T19:29:23.805Z,5.07
2022-10-10T19:31:52.064Z,5.18
2022-10-10T19:34:21.884Z,5.40
2022-10-10T19:36:50.113Z,4.70
2022-10-10T19:39:18.879Z,4.68
2022-10-10T19:41:47.206Z,4.75
2022-10-10T19:44:15.441Z,5.35
2022-10-10T19:46:43.701Z,5.15
2022-10-10T19:49:12.303Z,5.05
2022-10-10T19:51:41.945Z,4.30
2022-10-10T19:54:10.446Z,4.68
2022-10-10T19:56:38.872Z,5.13
2022-10-10T19:59:07.217Z,4.93
2022-10-10T20:01:35.548Z,5.00
2022-10-10T20:04:04.045Z,5.78
2022-10-10T20:06:32.322Z,4.68
2022-10-10T20:09:02.047Z,4.78
2022-10-10T20:11:31.184Z,5.47
2022-10-10T20:13:59.537Z,4.72
2022-10-10T20:16:28.433Z,4.40
2022-10-10T20:18:58.799Z,5.03
2022-10-10T20:21:31.641Z,4.68
2022-10-10T20:24:03.867Z,5.10
2022-10-10T20:26:32.094Z,5.15
2022-10-10T20:29:00.953Z,4.97
2022-10-10T20:31:32.782Z,4.90
2022-10-10T20:34:02.505Z,4.85
2022-10-10T20:36:33.089Z,4.35
2022-10-10T20:39:06.245Z,4.85
2022-10-10T20:41:37.444Z,4.75
2022-10-10T20:44:07.834Z,5.13
2022-10-10T20:46:38.168Z,4.85
2022-10-10T20:49:11.333Z,5.15
2022-10-10T20:51:39.751Z,4.25
2022-10-10T20:54:11.799Z,4.38
2022-10-10T20:56:40.726Z,5.18
2022-10-10T20:59:10.654Z,4.00
2022-10-10T21:01:40.373Z,4.82
2022-10-10T21:04:11.441Z,4.43
2022-10-10T21:06:42.580Z,4.38
2022-10-10T21:09:14.826Z,3.92
2022-10-10T21:11:46.408Z,4.03
2022-10-10T21:14:17.058Z,4.25
2022-10-10T21:16:45.674Z,4.53
2022-10-10T21:19:15.152Z,4.10
2022-10-10T21:21:43.735Z,4.57
2022-10-10T21:24:13.961Z,4.50
2022-10-10T21:26:43.082Z,4.18
2022-10-10T21:29:11.300Z,4.38
2022-10-10T21:31:41.490Z,4.90
2022-10-10T21:34:15.656Z,5.22
2022-10-10T21:36:44.382Z,4.55
2022-10-10T21:39:15.316Z,4.97
2022-10-10T21:41:43.770Z,5.28
2022-10-10T21:44:12.353Z,4.57
2022-10-10T21:46:40.598Z,4.88
2022-10-10T21:49:12.300Z,5.20
2022-10-10T21:51:42.929Z,5.10
2022-10-10T21:54:13.016Z,5.43
2022-10-10T21:56:41.643Z,5.35
2022-10-10T21:59:10.486Z,4.70
2022-10-10T22:01:38.847Z,5.53
2022-10-10T22:04:07.550Z,4.78
2022-10-10T22:06:35.849Z,4.93
2022-10-10T22:09:04.997Z,5.47
2022-10-10T22:11:35.574Z,5.57
2022-10-10T22:14:05.578Z,5.20
2022-10-10T22:16:34.599Z,5.80
2022-10-10T22:19:03.655Z,5.57
2022-10-10T22:21:35.099Z,5.72
2022-10-10T22:24:07.527Z,4.80
2022-10-10T22:26:38.469Z,5.53
2022-10-10T22:29:06.858Z,6.00
2022-10-10T22:31:37.750Z,5.88
2022-10-10T22:34:07.076Z,5.40
2022-10-10T22:36:35.726Z,5.13
2022-10-10T22:39:04.967Z,4.97
2022-10-10T22:41:33.305Z,4.75
2022-10-10T22:44:03.169Z,4.22
2022-10-10T22:46:31.698Z,4.97
2022-10-10T22:49:00.079Z,4.75
2022-10-10T22:51:28.354Z,5.57
2022-10-10T22:53:56.570Z,5.13
2022-10-10T22:56:24.919Z,5.72
2022-10-10T22:58:53.182Z,4.88
2022-10-10T23:01:26.650Z,4.80
2022-10-10T23:03:56.841Z,5.40
2022-10-10T23:06:25.232Z,5.82
2022-10-10T23:08:53.981Z,5.03
2022-10-10T23:11:22.226Z,4.43
2022-10-10T23:13:50.387Z,4.72
2022-10-10T23:16:18.659Z,5.57
2022-10-10T23:18:48.245Z,5.35
2022-10-10T23:21:16.721Z,4.88
2022-10-10T23:23:44.906Z,4.72
2022-10-10T23:26:14.269Z,5.15
2022-10-10T23:28:44.761Z,5.90
2022-10-10T23:31:14.311Z,4.82
2022-10-10T23:33:43.779Z,5.97
2022-10-10T23:36:15.652Z,4.95
2022-10-10T23:38:44.751Z,5.28
2022-10-10T23:41:15.226Z,5.63
2022-10-10T23:43:43.472Z,4.75
2022-10-10T23:46:12.168Z,4.47
2022-10-10T23:48:40.505Z,4.78
2022-10-10T23:51:09.024Z,3.85
2022-10-10T23:53:38.669Z,4.68
2022-10-10T23:56:07.904Z,4.40
2022-10-10T23:58:36.635Z,4.38
